Time;durP1;ratioP1;P1;durP2;ratioP2;P2;SDS_P1;SDS_P2;PMS_P1;PMS_P2;Temp;Humidity;BMP_temperature;BMP_pressure;BME280_temperature;BME280_humidity;BME280_pressure;Samples;Min_cycle;Max_cycle;Signal;HPM_P1;HPM_P2
2022/09/25 00:01:50;;;;;;;7.47;2.67;;;15.00;99.90;;;;;;5020165;28;20868;-66
2022/09/25 00:04:19;;;;;;;6.07;2.65;;;14.90;99.90;;;;;;5047913;28;20208;-66
2022/09/25 00:06:47;;;;;;;7.68;2.35;;;14.90;99.90;;;;;;5035856;28;20223;-66
2022/09/25 00:09:18;;;;;;;4.63;2.30;;;14.90;99.90;;;;;;5032082;28;20205;-66
2022/09/25 00:11:45;;;;;;;7.57;2.20;;;15.00;99.90;;;;;;5018104;28;20204;-66
2022/09/25 00:14:12;;;;;;;3.28;2.03;;;14.80;99.90;;;;;;5042548;28;20200;-67
2022/09/25 00:16:39;;;;;;;9.80;2.92;;;15.10;99.90;;;;;;5034838;28;20209;-67
2022/09/25 00:22:05;;;;;;;7.60;2.13;;;14.90;99.90;;;;;;5034318;28;20211;-66
2022/09/25 00:24:32;;;;;;;6.35;2.70;;;14.60;99.90;;;;;;5046562;28;20630;-66
2022/09/25 00:27:00;;;;;;;6.95;1.85;;;14.90;99.90;;;;;;5019853;28;20805;-66
2022/09/25 00:29:26;;;;;;;6.40;1.90;;;14.90;99.90;;;;;;5042479;28;20208;-66
2022/09/25 00:31:55;;;;;;;7.13;2.33;;;14.90;99.90;;;;;;5035021;28;20209;-66
2022/09/25 00:34:23;;;;;;;7.68;1.92;;;14.80;99.90;;;;;;5024120;28;20402;-66
2022/09/25 00:36:50;;;;;;;8.30;2.13;;;14.80;99.90;;;;;;5037992;28;20211;-66
2022/09/25 00:39:16;;;;;;;14.40;2.28;;;14.80;99.90;;;;;;5031879;28;20966;-66
2022/09/25 00:41:43;;;;;;;5.45;1.63;;;14.70;99.90;;;;;;5039055;28;20208;-67
2022/09/25 00:44:59;;;;;;;7.47;1.60;;;14.70;99.90;;;;;;5011897;28;20213;-66
2022/09/25 00:47:35;;;;;;;4.13;1.90;;;14.70;99.90;;;;;;4938861;28;20707;-66
2022/09/25 00:50:11;;;;;;;11.00;2.13;;;14.70;99.90;;;;;;4933849;28;20391;-67
2022/09/25 00:52:38;;;;;;;8.45;2.30;;;14.80;99.90;;;;;;4983212;28;20200;-66
2022/09/25 00:55:08;;;;;;;4.72;1.90;;;14.70;99.90;;;;;;5040521;28;20193;-66
2022/09/25 00:57:37;;;;;;;4.22;2.10;;;15.80;99.90;;;;;;5016610;28;21092;-67
2022/09/25 01:00:08;;;;;;;9.85;2.55;;;14.70;99.90;;;;;;5041573;28;20219;-66
2022/09/25 01:02:38;;;;;;;12.52;1.90;;;14.70;99.90;;;;;;5039385;28;20726;-66
2022/09/25 01:05:10;;;;;;;8.85;2.60;;;14.70;99.90;;;;;;5034864;28;20205;-66
2022/09/25 01:07:40;;;;;;;9.32;2.42;;;15.40;99.90;;;;;;5028236;28;20229;-66
2022/09/25 01:10:09;;;;;;;10.50;1.95;;;14.60;99.90;;;;;;5037744;28;20197;-67
2022/09/25 01:12:39;;;;;;;11.05;2.58;;;15.50;99.90;;;;;;5013719;28;20209;-66
2022/09/25 01:15:07;;;;;;;10.55;2.35;;;14.40;99.90;;;;;;5040539;28;20208;-66
2022/09/25 01:17:43;;;;;;;17.77;2.47;;;14.70;99.90;;;;;;5043227;28;20227;-66
2022/09/25 01:20:23;;;;;;;9.68;2.03;;;14.80;99.90;;;;;;5008802;28;20196;-66
2022/09/25 01:23:04;;;;;;;11.85;2.75;;;14.60;99.90;;;;;;5030182;28;20209;-66
2022/09/25 01:25:46;;;;;;;12.20;2.65;;;14.60;99.90;;;;;;5031443;28;20789;-66
2022/09/25 01:28:29;;;;;;;3.95;1.73;;;14.60;99.90;;;;;;5019804;28;20287;-66
2022/09/25 01:31:02;;;;;;;8.30;2.10;;;14.60;99.90;;;;;;5041474;28;20197;-66
2022/09/25 01:33:35;;;;;;;7.95;2.03;;;14.50;99.90;;;;;;5043648;28;20229;-66
2022/09/25 01:36:07;;;;;;;10.23;2.35;;;14.50;99.90;;;;;;5036222;28;20303;-66
2022/09/25 01:38:41;;;;;;;6.45;2.25;;;14.60;99.90;;;;;;5032488;28;20205;-65
2022/09/25 01:41:12;;;;;;;6.35;1.90;;;14.60;99.90;;;;;;5024247;28;20210;-67
2022/09/25 01:43:43;;;;;;;7.43;2.10;;;14.60;99.90;;;;;;5033328;28;20205;-67
2022/09/25 01:46:15;;;;;;;9.40;2.10;;;14.60;99.90;;;;;;5026877;28;20228;-66
2022/09/25 01:48:45;;;;;;;7.38;2.15;;;14.50;99.90;;;;;;5044233;28;20203;-66
2022/09/25 01:51:17;;;;;;;4.50;1.90;;;14.60;99.90;;;;;;5028714;28;20201;-67
2022/09/25 01:53:47;;;;;;;9.45;1.90;;;14.40;99.90;;;;;;5026688;28;20630;-66
2022/09/25 01:56:21;;;;;;;7.68;1.85;;;14.80;99.90;;;;;;5029777;28;20197;-65
2022/09/25 01:58:52;;;;;;;4.55;1.90;;;14.60;99.90;;;;;;5044171;28;20211;-66
2022/09/25 02:01:25;;;;;;;4.70;2.45;;;13.30;99.90;;;;;;5013143;28;20216;-66
2022/09/25 02:03:57;;;;;;;7.63;2.00;;;15.80;99.90;;;;;;5037839;28;22589;-66
2022/09/25 02:06:25;;;;;;;6.78;1.90;;;14.50;99.90;;;;;;5029114;28;20247;-66
2022/09/25 02:08:55;;;;;;;8.02;2.00;;;14.60;99.90;;;;;;5032481;28;20929;-66
2022/09/25 02:11:28;;;;;;;11.27;2.25;;;14.60;99.90;;;;;;5026798;28;20213;-66
2022/09/25 02:13:58;;;;;;;4.93;1.67;;;14.60;99.90;;;;;;5037655;28;20278;-66
2022/09/25 02:16:33;;;;;;;5.07;1.50;;;15.30;99.90;;;;;;5015653;28;20266;-66
2022/09/25 02:21:49;;;;;;;14.35;1.80;;;14.60;99.90;;;;;;5024339;28;20261;-66
2022/09/25 02:24:21;;;;;;;4.70;1.80;;;14.60;99.90;;;;;;5018620;28;20205;-67
2022/09/25 02:26:49;;;;;;;6.80;1.80;;;14.50;99.90;;;;;;5021944;28;20240;-66
2022/09/25 02:29:17;;;;;;;16.90;2.53;;;14.50;99.90;;;;;;5039317;28;20215;-66
2022/09/25 02:31:49;;;;;;;5.47;2.00;;;14.60;99.90;;;;;;5010710;28;20207;-65
2022/09/25 02:34:16;;;;;;;6.10;2.08;;;14.50;99.90;;;;;;5038456;28;20224;-65
2022/09/25 02:36:43;;;;;;;6.78;1.55;;;14.50;99.90;;;;;;5026915;28;20221;-65
2022/09/25 02:39:11;;;;;;;5.82;1.42;;;14.30;99.90;;;;;;5020016;28;20690;-66
2022/09/25 02:41:57;;;;;;;4.45;1.67;;;14.40;99.90;;;;;;5027278;28;20201;-65
2022/09/25 02:44:34;;;;;;;5.28;1.80;;;14.50;99.90;;;;;;5041564;28;20196;-66
2022/09/25 02:47:18;;;;;;;6.60;1.77;;;15.00;99.90;;;;;;5012249;28;20232;-65
2022/09/25 02:49:51;;;;;;;4.43;1.88;;;14.40;99.90;;;;;;5036189;28;20204;-66
2022/09/25 02:52:26;;;;;;;7.28;1.83;;;14.50;99.90;;;;;;5019384;28;20220;-67
2022/09/25 02:54:57;;;;;;;9.13;1.90;;;14.40;99.90;;;;;;5042551;28;20204;-66
2022/09/25 02:57:31;;;;;;;3.33;1.70;;;14.50;99.90;;;;;;5015781;28;20216;-66
2022/09/25 03:00:03;;;;;;;6.40;1.92;;;14.50;99.90;;;;;;5036688;28;20209;-67
2022/09/25 03:02:33;;;;;;;10.30;2.70;;;14.40;99.90;;;;;;5014332;28;20802;-67
2022/09/25 03:05:01;;;;;;;4.00;1.33;;;14.40;99.90;;;;;;5043540;28;20202;-67
2022/09/25 03:08:36;;;;;;;4.03;1.55;;;14.40;99.90;;;;;;5033021;28;20232;-67
2022/09/25 03:10:17;;;;;;;5.55;2.25;;;14.40;99.90;;;;;;5042863;28;20586;-66
2022/09/25 03:12:44;;;;;;;4.47;1.88;;;14.40;99.90;;;;;;5023651;28;20694;-66
2022/09/25 03:15:12;;;;;;;5.75;2.00;;;15.50;99.90;;;;;;5044395;28;20205;-66
2022/09/25 03:17:40;;;;;;;4.32;1.80;;;14.40;99.90;;;;;;5018976;28;20209;-67
2022/09/25 03:20:08;;;;;;;6.78;1.92;;;14.30;99.90;;;;;;5041370;28;20200;-66
2022/09/25 03:22:36;;;;;;;4.32;1.60;;;14.50;99.90;;;;;;5043330;28;20685;-66
2022/09/25 03:25:04;;;;;;;6.35;1.80;;;14.40;99.90;;;;;;5039309;28;20201;-66
2022/09/25 03:27:31;;;;;;;7.85;1.48;;;14.40;99.90;;;;;;5029247;28;20229;-67
2022/09/25 03:29:57;;;;;;;9.82;1.83;;;14.40;99.90;;;;;;5037693;28;20205;-66
2022/09/25 03:32:24;;;;;;;5.78;1.48;;;14.40;99.90;;;;;;5043680;28;20212;-65
2022/09/25 03:34:52;;;;;;;2.05;1.52;;;14.40;99.90;;;;;;5018611;28;20208;-67
2022/09/25 03:37:19;;;;;;;2.50;1.67;;;14.40;99.90;;;;;;5043737;28;20225;-66
2022/09/25 03:39:46;;;;;;;7.80;1.90;;;14.40;99.90;;;;;;5036075;28;21006;-66
2022/09/25 03:42:13;;;;;;;4.28;1.33;;;14.30;99.90;;;;;;5030336;28;20582;-66
2022/09/25 03:44:40;;;;;;;5.93;2.13;;;13.60;99.90;;;;;;5025571;28;20229;-66
2022/09/25 03:47:07;;;;;;;6.85;2.17;;;14.30;99.90;;;;;;5041776;28;20342;-66
2022/09/25 03:49:34;;;;;;;4.07;1.50;;;14.30;99.90;;;;;;5016344;28;20708;-67
2022/09/25 03:52:02;;;;;;;6.90;1.63;;;14.30;99.90;;;;;;5044777;28;20661;-66
2022/09/25 03:54:29;;;;;;;2.95;1.70;;;14.30;99.90;;;;;;5031502;28;20306;-67
2022/09/25 03:56:56;;;;;;;5.40;1.50;;;14.10;99.90;;;;;;5041800;28;20671;-66
2022/09/25 03:59:23;;;;;;;5.72;1.75;;;14.40;99.90;;;;;;5016471;28;22909;-67
2022/09/25 04:01:50;;;;;;;4.75;1.40;;;14.40;99.90;;;;;;5029459;28;20213;-66
2022/09/25 04:04:16;;;;;;;4.05;1.50;;;14.10;99.90;;;;;;5044572;28;20204;-67
2022/09/25 04:06:43;;;;;;;2.22;1.58;;;14.10;99.90;;;;;;5010251;28;20221;-66
2022/09/25 04:09:12;;;;;;;2.83;1.67;;;;;;;;;;5031137;28;20220;-66
2022/09/25 04:11:38;;;;;;;2.40;1.45;;;14.10;99.90;;;;;;5042546;28;20208;-67
2022/09/25 04:14:05;;;;;;;4.35;1.85;;;15.60;99.90;;;;;;5031691;28;20197;-66
2022/09/25 04:16:32;;;;;;;6.93;1.58;;;14.10;99.90;;;;;;5032255;28;20207;-66
2022/09/25 04:18:59;;;;;;;3.45;1.60;;;14.10;99.90;;;;;;5043340;28;20307;-66
2022/09/25 04:21:26;;;;;;;2.50;1.70;;;14.10;99.90;;;;;;5012736;28;20216;-66
2022/09/25 04:26:38;;;;;;;2.83;1.60;;;14.00;99.90;;;;;;5032241;28;20207;-67
2022/09/25 04:29:05;;;;;;;5.57;1.75;;;13.90;99.90;;;;;;5024841;28;20198;-66
2022/09/25 04:31:32;;;;;;;2.47;1.80;;;13.60;99.90;;;;;;5029663;28;20201;-67
2022/09/25 04:33:59;;;;;;;3.92;1.83;;;13.80;99.90;;;;;;5043223;28;20224;-66
2022/09/25 04:36:26;;;;;;;7.93;1.75;;;13.70;99.90;;;;;;4994584;28;20258;-66
2022/09/25 04:38:52;;;;;;;5.75;1.60;;;13.70;99.90;;;;;;5028543;28;20674;-66
2022/09/25 04:41:20;;;;;;;9.13;1.55;;;13.50;99.90;;;;;;5029329;28;20209;-66
2022/09/25 04:43:48;;;;;;;4.20;1.80;;;13.80;99.90;;;;;;5034251;28;20202;-66
2022/09/25 04:46:16;;;;;;;2.42;1.70;;;12.40;99.90;;;;;;5013978;28;20228;-67
2022/09/25 04:48:45;;;;;;;13.18;2.17;;;13.70;99.90;;;;;;5039389;28;20319;-67
2022/09/25 04:51:12;;;;;;;3.28;1.60;;;13.50;99.90;;;;;;5012382;28;20217;-66
2022/09/25 04:53:39;;;;;;;2.53;1.70;;;13.30;99.90;;;;;;5040166;28;20212;-66
2022/09/25 04:56:07;;;;;;;4.30;2.03;;;13.50;99.90;;;;;;5025374;28;20786;-67
2022/09/25 04:58:34;;;;;;;3.90;1.67;;;13.50;99.90;;;;;;5026518;28;20229;-66
2022/09/25 05:01:07;;;;;;;2.28;1.60;;;13.70;99.90;;;;;;5019370;28;20205;-66
2022/09/25 05:03:34;;;;;;;3.83;1.60;;;13.40;99.90;;;;;;5026543;28;20224;-66
2022/09/25 05:06:01;;;;;;;3.08;1.92;;;13.30;99.90;;;;;;5029249;28;20979;-66
2022/09/25 05:08:28;;;;;;;6.55;1.83;;;13.40;99.90;;;;;;5012742;28;20702;-66
2022/09/25 05:10:56;;;;;;;3.08;1.73;;;13.00;99.90;;;;;;5020850;28;20336;-67
2022/09/25 05:13:23;;;;;;;9.00;1.80;;;13.10;99.90;;;;;;5045014;28;20211;-66
2022/09/25 05:15:49;;;;;;;1.48;1.38;;;13.10;99.90;;;;;;5028990;28;20205;-66
2022/09/25 05:18:19;;;;;;;4.50;1.83;;;13.10;99.90;;;;;;5034100;28;20783;-67
2022/09/25 05:20:46;;;;;;;3.50;2.08;;;13.10;99.90;;;;;;5030131;28;20217;-66
2022/09/25 05:23:13;;;;;;;3.40;1.88;;;12.70;99.90;;;;;;5020401;28;20213;-66
2022/09/25 05:25:39;;;;;;;3.58;1.90;;;13.00;99.90;;;;;;5035463;28;20200;-66
2022/09/25 05:28:06;;;;;;;2.30;2.10;;;12.90;99.90;;;;;;5028543;28;20235;-66
2022/09/25 05:30:34;;;;;;;2.47;1.88;;;13.10;99.90;;;;;;5035828;28;20793;-67
2022/09/25 05:33:01;;;;;;;5.25;2.00;;;13.10;99.90;;;;;;5028702;28;20757;-66
2022/09/25 05:35:31;;;;;;;5.78;2.05;;;13.20;99.90;;;;;;5038663;28;20204;-66
2022/09/25 05:37:58;;;;;;;3.22;2.10;;;13.10;99.90;;;;;;5014717;28;20228;-66
2022/09/25 05:40:25;;;;;;;3.17;1.83;;;13.20;99.90;;;;;;5028973;28;20204;-66
2022/09/25 05:42:54;;;;;;;5.57;2.00;;;13.10;99.90;;;;;;5030856;28;20685;-67
2022/09/25 05:45:21;;;;;;;4.95;2.50;;;13.00;99.90;;;;;;5042407;28;20197;-66
2022/09/25 05:47:48;;;;;;;2.97;2.00;;;13.00;99.90;;;;;;5018513;28;20221;-67
2022/09/25 05:50:16;;;;;;;7.97;2.40;;;12.80;99.90;;;;;;5040322;28;20197;-66
2022/09/25 05:52:45;;;;;;;6.43;2.22;;;12.80;99.90;;;;;;5017708;28;20212;-67
2022/09/25 05:55:12;;;;;;;2.13;1.90;;;12.80;99.90;;;;;;5040118;28;20254;-66
2022/09/25 05:57:39;;;;;;;2.88;1.83;;;14.40;99.90;;;;;;5029835;28;20205;-66
2022/09/25 06:00:08;;;;;;;4.85;1.83;;;12.50;99.90;;;;;;5033546;28;20236;-67
2022/09/25 06:02:35;;;;;;;3.70;1.98;;;12.80;99.90;;;;;;5010077;28;20220;-66
2022/09/25 06:05:02;;;;;;;2.88;1.85;;;13.50;99.90;;;;;;5025359;28;20221;-66
2022/09/25 06:07:29;;;;;;;4.97;1.95;;;12.70;99.90;;;;;;5021260;28;20221;-66
2022/09/25 06:09:57;;;;;;;5.80;1.85;;;12.60;99.90;;;;;;5007901;28;20201;-66
2022/09/25 06:12:24;;;;;;;4.30;2.00;;;12.70;99.90;;;;;;5025002;28;20952;-66
2022/09/25 06:14:51;;;;;;;3.25;1.83;;;12.80;99.90;;;;;;5018292;28;20205;-66
2022/09/25 06:17:18;;;;;;;3.85;1.75;;;12.70;99.90;;;;;;5024324;28;20209;-67
2022/09/25 06:19:45;;;;;;;2.47;1.73;;;12.80;99.90;;;;;;5023584;28;20675;-66
2022/09/25 06:22:12;;;;;;;5.88;2.08;;;12.80;99.90;;;;;;5009444;28;20243;-66
2022/09/25 06:24:39;;;;;;;9.27;2.17;;;12.80;99.90;;;;;;5004479;28;23134;-65
2022/09/25 06:27:08;;;;;;;3.55;2.20;;;13.00;99.90;;;;;;5017679;28;20256;-66
2022/09/25 06:29:35;;;;;;;5.55;2.05;;;13.00;99.90;;;;;;5029585;28;20576;-66
2022/09/25 06:32:02;;;;;;;9.63;2.50;;;13.10;99.90;;;;;;5037423;28;20201;-66
2022/09/25 06:34:29;;;;;;;5.75;2.28;;;13.30;99.90;;;;;;5000872;28;20233;-66
2022/09/25 06:36:56;;;;;;;5.07;1.80;;;13.20;99.90;;;;;;5036486;28;20232;-66
2022/09/25 06:39:23;;;;;;;5.03;2.33;;;13.20;99.90;;;;;;5029855;28;20216;-66
2022/09/25 06:41:52;;;;;;;7.72;2.70;;;13.30;99.90;;;;;;5009456;28;20200;-66
2022/09/25 06:44:21;;;;;;;5.45;2.22;;;13.30;99.90;;;;;;5013883;28;20220;-66
2022/09/25 06:46:49;;;;;;;6.20;2.00;;;13.30;99.90;;;;;;5040968;28;20205;-66
2022/09/25 06:49:16;;;;;;;4.78;2.08;;;13.30;99.90;;;;;;5024411;28;20251;-66
2022/09/25 06:51:43;;;;;;;6.32;2.42;;;13.50;99.90;;;;;;5038435;28;20241;-66
2022/09/25 06:54:09;;;;;;;7.03;2.13;;;13.50;99.90;;;;;;5022496;28;20205;-66
2022/09/25 06:56:36;;;;;;;6.97;2.65;;;13.60;99.90;;;;;;5013402;28;20220;-66
2022/09/25 06:59:03;;;;;;;3.47;2.28;;;13.60;99.90;;;;;;5016791;28;20240;-66
2022/09/25 07:01:32;;;;;;;4.05;2.30;;;13.60;99.90;;;;;;5029041;28;20202;-66
2022/09/25 07:03:57;;;;;;;5.88;2.38;;;14.50;99.90;;;;;;5043243;28;20196;-66
2022/09/25 07:06:30;;;;;;;8.75;2.15;;;13.70;99.90;;;;;;5026804;28;20219;-66
2022/09/25 07:08:56;;;;;;;2.67;1.90;;;13.70;99.90;;;;;;5033677;28;20239;-66
2022/09/25 07:11:25;;;;;;;7.38;2.20;;;13.80;99.90;;;;;;5006230;28;26424;-66
2022/09/25 07:13:53;;;;;;;4.75;2.17;;;13.80;99.90;;;;;;5020842;28;20225;-65
2022/09/25 07:16:23;;;;;;;5.35;2.33;;;13.80;99.90;;;;;;5018028;28;20826;-66
2022/09/25 07:18:53;;;;;;;8.25;2.20;;;13.90;99.90;;;;;;5025988;28;20205;-66
2022/09/25 07:21:22;;;;;;;5.60;2.20;;;13.90;99.90;;;;;;5026820;28;20209;-67
2022/09/25 07:23:50;;;;;;;5.00;2.20;;;14.00;99.90;;;;;;5029901;28;20217;-66
2022/09/25 07:26:21;;;;;;;6.45;2.15;;;;;;;;;;5027856;28;20943;-66
2022/09/25 07:28:48;;;;;;;7.53;2.40;;;14.10;99.90;;;;;;5010441;28;20232;-66
2022/09/25 07:31:17;;;;;;;6.63;1.98;;;15.80;99.90;;;;;;5015168;28;20236;-67
2022/09/25 07:33:45;;;;;;;5.95;1.88;;;14.20;99.90;;;;;;5028756;28;20233;-66
2022/09/25 07:36:14;;;;;;;6.25;1.60;;;14.30;99.90;;;;;;5020521;28;20228;-66
2022/09/25 07:38:41;;;;;;;5.03;1.77;;;14.40;99.90;;;;;;5038779;28;20573;-66
2022/09/25 07:41:11;;;;;;;4.72;2.03;;;14.50;99.90;;;;;;5019926;28;20643;-67
2022/09/25 07:43:39;;;;;;;10.73;2.65;;;;;;;;;;5011880;28;20204;-67
2022/09/25 07:46:06;;;;;;;4.07;1.90;;;15.50;99.90;;;;;;5019761;28;21363;-68
2022/09/25 07:48:33;;;;;;;7.78;2.80;;;14.70;99.90;;;;;;5017586;28;20707;-67
2022/09/25 07:51:01;;;;;;;5.75;2.15;;;14.80;99.90;;;;;;5016720;28;20209;-68
2022/09/25 07:53:29;;;;;;;4.93;2.38;;;16.10;99.90;;;;;;5026256;28;21267;-68
2022/09/25 07:55:58;;;;;;;5.80;2.20;;;14.80;99.90;;;;;;5026305;28;20217;-68
2022/09/25 07:58:25;;;;;;;4.95;2.20;;;14.90;99.90;;;;;;4993613;28;22576;-67
2022/09/25 08:00:53;;;;;;;5.63;2.38;;;15.00;99.90;;;;;;5028626;28;20197;-66
2022/09/25 08:03:20;;;;;;;10.75;2.33;;;15.00;99.90;;;;;;5018943;28;20584;-67
2022/09/25 08:05:47;;;;;;;4.47;1.95;;;15.10;99.90;;;;;;5028020;28;20220;-67
2022/09/25 08:08:14;;;;;;;4.63;1.70;;;15.20;99.90;;;;;;5019108;28;20231;-67
2022/09/25 08:10:42;;;;;;;11.38;2.03;;;15.20;99.90;;;;;;5037904;28;20212;-67
2022/09/25 08:13:09;;;;;;;8.02;1.73;;;15.30;99.90;;;;;;4998812;28;20757;-68
2022/09/25 08:15:36;;;;;;;6.22;1.88;;;16.00;99.90;;;;;;5035228;28;20775;-67
2022/09/25 08:18:02;;;;;;;4.47;2.00;;;15.40;99.90;;;;;;5021205;28;20588;-68
2022/09/25 08:20:29;;;;;;;6.20;2.00;;;15.20;99.90;;;;;;5019916;28;20753;-67
2022/09/25 08:22:56;;;;;;;2.97;1.40;;;15.10;99.90;;;;;;5024204;28;20204;-67
2022/09/25 08:25:23;;;;;;;3.75;1.48;;;15.10;99.90;;;;;;5037301;28;20201;-68
2022/09/25 08:27:51;;;;;;;5.55;1.77;;;15.00;99.90;;;;;;5012671;28;20850;-68
2022/09/25 08:30:18;;;;;;;1.67;1.10;;;14.90;99.90;;;;;;5038482;28;20200;-68
2022/09/25 08:32:45;;;;;;;1.75;1.17;;;14.90;99.90;;;;;;5036219;28;20319;-67
2022/09/25 08:35:12;;;;;;;10.98;1.90;;;14.90;99.90;;;;;;5014962;28;20206;-68
2022/09/25 08:37:43;;;;;;;6.28;1.58;;;14.80;99.90;;;;;;5025315;28;20215;-68
2022/09/25 08:40:18;;;;;;;4.63;0.80;;;14.70;99.90;;;;;;5027313;28;20216;-67
2022/09/25 08:42:48;;;;;;;2.55;1.20;;;14.60;99.90;;;;;;5006950;28;20258;-68
2022/09/25 08:51:05;;;;;;;4.57;1.33;;;14.90;99.90;;;;;;5028044;28;20243;-67
2022/09/25 08:53:34;;;;;;;6.72;2.22;;;15.30;99.90;;;;;;5018003;28;20279;-68
2022/09/25 08:56:16;;;;;;;1.95;1.05;;;15.10;99.90;;;;;;5020405;28;20252;-67
2022/09/25 08:58:47;;;;;;;1.40;0.60;;;15.00;99.90;;;;;;5005841;28;20244;-67
2022/09/25 09:01:17;;;;;;;1.77;0.60;;;14.70;99.90;;;;;;5023079;28;20224;-68
2022/09/25 09:03:48;;;;;;;2.03;0.90;;;14.40;99.90;;;;;;5027867;28;20218;-67
2022/09/25 09:06:17;;;;;;;1.98;0.65;;;14.30;99.90;;;;;;5021719;28;20229;-69
2022/09/25 09:08:48;;;;;;;1.98;0.73;;;14.10;99.90;;;;;;5039151;28;20230;-66
2022/09/25 09:11:19;;;;;;;0.90;0.65;;;14.00;99.90;;;;;;5019608;28;20231;-66
2022/09/25 09:13:50;;;;;;;1.08;0.68;;;13.90;99.90;;;;;;5001333;28;20284;-66
2022/09/25 09:16:26;;;;;;;4.35;0.88;;;13.90;99.90;;;;;;5033587;28;20208;-65
2022/09/25 09:18:54;;;;;;;2.20;0.70;;;13.80;99.90;;;;;;5038839;28;20595;-66
2022/09/25 09:21:26;;;;;;;3.90;1.17;;;13.90;99.90;;;;;;5020496;28;20638;-66
2022/09/25 09:24:00;;;;;;;4.57;1.10;;;13.90;99.90;;;;;;5033009;28;20230;-66
2022/09/25 09:26:37;;;;;;;2.72;0.90;;;14.10;99.90;;;;;;5012800;28;20591;-66
2022/09/25 09:29:24;;;;;;;5.22;1.30;;;14.30;99.90;;;;;;5004879;28;20240;-65
2022/09/25 09:31:59;;;;;;;3.60;1.40;;;14.20;99.90;;;;;;5023104;28;20252;-66
2022/09/25 09:34:51;;;;;;;3.20;1.15;;;14.40;99.90;;;;;;5025961;28;20267;-66
2022/09/25 09:37:25;;;;;;;4.53;1.50;;;14.50;99.90;;;;;;5014291;28;20231;-66
2022/09/25 09:40:02;;;;;;;4.93;0.80;;;14.60;99.90;;;;;;5029899;28;20224;-66
2022/09/25 09:42:40;;;;;;;7.28;1.67;;;14.50;99.90;;;;;;5023131;28;20224;-65
2022/09/25 09:45:16;;;;;;;4.72;1.27;;;14.70;99.90;;;;;;5001062;28;20667;-65
2022/09/25 09:47:54;;;;;;;5.35;1.25;;;14.80;99.90;;;;;;5031334;28;20226;-66
2022/09/25 09:50:35;;;;;;;7.85;1.25;;;14.80;99.90;;;;;;5030321;28;20230;-66
2022/09/25 09:53:12;;;;;;;6.15;1.48;;;14.70;99.90;;;;;;5018267;28;20611;-66
2022/09/25 09:55:44;;;;;;;5.78;1.50;;;14.80;99.90;;;;;;5028225;28;20220;-65
2022/09/25 09:58:15;;;;;;;7.30;1.48;;;14.70;99.90;;;;;;5016947;28;20229;-65
2022/09/25 10:00:43;;;;;;;4.28;1.13;;;;;;;;;;4999757;28;20235;-65
2022/09/25 10:03:17;;;;;;;2.67;1.30;;;15.00;99.90;;;;;;4997824;28;20780;-65
2022/09/25 10:05:47;;;;;;;5.97;1.08;;;14.70;99.90;;;;;;5030080;28;20796;-65
2022/09/25 10:08:15;;;;;;;3.65;1.00;;;15.60;99.90;;;;;;5021439;28;20212;-65
2022/09/25 10:10:44;;;;;;;3.53;0.80;;;;;;;;;;5037361;28;21043;-65
2022/09/25 10:13:16;;;;;;;5.25;0.90;;;14.90;99.90;;;;;;5025551;28;20302;-65
2022/09/25 10:15:47;;;;;;;7.72;1.30;;;14.70;99.90;;;;;;5010010;28;20228;-65
2022/09/25 10:18:17;;;;;;;3.45;1.20;;;14.30;99.90;;;;;;5036031;28;20213;-65
2022/09/25 10:20:49;;;;;;;3.00;0.90;;;14.70;99.90;;;;;;5039550;28;20243;-65
2022/09/25 10:23:36;;;;;;;4.70;1.10;;;14.70;99.90;;;;;;5026321;28;20234;-66
2022/09/25 10:26:05;;;;;;;6.45;1.08;;;15.00;99.90;;;;;;5043646;28;20224;-65
2022/09/25 10:28:35;;;;;;;6.32;1.08;;;14.80;99.90;;;;;;5030418;28;20196;-65
2022/09/25 10:31:03;;;;;;;1.67;0.80;;;;;;;;;;5011514;28;20224;-65
2022/09/25 10:33:32;;;;;;;4.95;1.10;;;14.00;99.90;;;;;;5037622;28;20240;-65
2022/09/25 10:35:59;;;;;;;4.28;1.00;;;15.00;99.90;;;;;;5037731;28;20213;-65
2022/09/25 10:38:37;;;;;;;3.28;1.63;;;14.90;99.90;;;;;;5011734;28;20239;-66
2022/09/25 10:41:07;;;;;;;4.88;1.20;;;15.10;99.10;;;;;;5043074;28;20224;-64
2022/09/25 10:43:35;;;;;;;4.43;1.20;;;17.80;99.90;;;;;;5025381;28;20240;-65
2022/09/25 10:46:12;;;;;;;7.22;1.48;;;15.20;99.90;;;;;;4997785;28;20224;-65
2022/09/25 10:51:26;;;;;;;7.47;1.20;;;15.30;99.80;;;;;;5036347;28;20231;-65
2022/09/25 10:54:09;;;;;;;3.95;1.40;;;15.50;99.90;;;;;;5025071;28;20240;-65
2022/09/25 10:56:37;;;;;;;2.83;0.80;;;15.30;98.70;;;;;;5029347;28;20229;-65
2022/09/25 10:59:13;;;;;;;4.75;1.15;;;15.50;97.20;;;;;;5027174;28;20236;-65
2022/09/25 11:01:42;;;;;;;3.40;1.20;;;;;;;;;;5010448;28;20233;-65
2022/09/25 11:04:16;;;;;;;6.32;1.05;;;15.20;97.30;;;;;;5040776;28;20228;-64
2022/09/25 11:06:46;;;;;;;3.42;0.98;;;15.10;98.50;;;;;;5044074;28;20446;-65
2022/09/25 11:09:16;;;;;;;4.53;1.20;;;15.00;99.60;;;;;;5029863;28;20228;-65
2022/09/25 11:11:45;;;;;;;4.90;1.20;;;15.20;98.00;;;;;;5038586;28;21117;-65
2022/09/25 11:14:22;;;;;;;4.45;0.95;;;15.40;99.90;;;;;;5033777;28;20689;-66
2022/09/25 11:16:51;;;;;;;3.35;0.98;;;13.80;99.90;;;;;;5010324;28;22033;-65
2022/09/25 11:19:27;;;;;;;8.23;1.35;;;15.20;99.50;;;;;;5037311;28;20239;-65
2022/09/25 11:22:17;;;;;;;3.95;0.90;;;15.10;93.30;;;;;;5024578;28;20259;-65
2022/09/25 11:24:52;;;;;;;6.57;1.30;;;15.00;93.60;;;;;;5010957;28;21266;-65
2022/09/25 11:27:23;;;;;;;6.00;1.10;;;15.20;99.80;;;;;;5033531;28;20232;-65
2022/09/25 11:30:00;;;;;;;9.55;1.40;;;15.10;98.80;;;;;;5036227;28;20236;-65
2022/09/25 11:32:33;;;;;;;3.08;1.13;;;15.10;97.70;;;;;;4997990;28;20205;-65
2022/09/25 11:35:19;;;;;;;9.10;1.30;;;15.00;95.20;;;;;;5032820;28;20227;-66
2022/09/25 11:37:54;;;;;;;3.03;0.90;;;15.00;90.00;;;;;;5031409;28;20482;-65
2022/09/25 11:43:29;;;;;;;2.22;0.98;;;14.80;87.20;;;;;;5034553;28;20299;-65
2022/09/25 11:46:01;;;;;;;5.18;0.90;;;14.80;90.20;;;;;;5017801;28;20331;-65
2022/09/25 11:48:39;;;;;;;5.68;1.13;;;14.50;95.30;;;;;;5004115;28;20244;-65
2022/09/25 11:51:10;;;;;;;3.03;0.77;;;;;;;;;;5027906;28;20233;-66
2022/09/25 11:53:49;;;;;;;3.95;1.00;;;12.20;85.90;;;;;;5029313;28;20216;-65
2022/09/25 11:56:28;;;;;;;2.25;1.00;;;14.90;83.00;;;;;;5009886;28;20307;-65
2022/09/25 11:59:10;;;;;;;1.98;0.95;;;14.70;83.00;;;;;;5026720;28;20213;-65
2022/09/25 12:01:42;;;;;;;3.92;0.85;;;14.70;73.00;;;;;;5017055;28;20212;-65
2022/09/25 12:04:44;;;;;;;3.03;0.80;;;14.70;77.00;;;;;;5008903;28;20221;-65
2022/09/25 12:07:39;;;;;;;3.40;1.00;;;14.80;78.60;;;;;;4951106;28;20236;-65
2022/09/25 12:10:22;;;;;;;3.17;0.75;;;14.90;70.60;;;;;;5016805;28;20228;-65
2022/09/25 12:12:58;;;;;;;4.88;0.82;;;15.20;73.30;;;;;;5018055;28;20965;-65
2022/09/25 12:15:34;;;;;;;7.43;1.20;;;15.20;86.50;;;;;;5035679;28;20201;-65
2022/09/25 12:18:07;;;;;;;5.72;0.98;;;15.20;69.40;;;;;;4978711;28;20229;-65
2022/09/25 12:20:42;;;;;;;4.60;1.35;;;15.10;70.90;;;;;;5023192;28;20274;-66
2022/09/25 12:23:20;;;;;;;3.97;0.57;;;14.70;78.00;;;;;;5010456;28;20852;-66
2022/09/25 12:26:00;;;;;;;4.95;0.95;;;15.30;76.30;;;;;;5035688;28;20220;-66
2022/09/25 12:28:39;;;;;;;1.55;0.68;;;15.40;75.40;;;;;;5020949;28;20204;-65
2022/09/25 12:31:13;;;;;;;3.88;0.90;;;15.30;73.90;;;;;;5032451;28;20227;-65
2022/09/25 12:33:50;;;;;;;4.07;0.82;;;15.20;72.00;;;;;;4996121;28;20244;-66
2022/09/25 12:36:22;;;;;;;2.78;0.75;;;15.00;56.70;;;;;;5017831;28;20200;-66
2022/09/25 12:38:55;;;;;;;1.98;0.75;;;15.00;57.00;;;;;;5034328;28;20202;-66
2022/09/25 12:41:28;;;;;;;1.63;0.80;;;15.20;57.60;;;;;;5023258;28;20686;-66
2022/09/25 12:44:00;;;;;;;4.28;1.08;;;15.00;49.40;;;;;;5025523;28;20213;-66
2022/09/25 12:46:32;;;;;;;6.35;1.30;;;15.00;50.40;;;;;;5034710;28;20223;-66
2022/09/25 12:49:04;;;;;;;7.32;3.90;;;15.10;59.10;;;;;;5005192;28;20225;-68
2022/09/25 12:51:39;;;;;;;5.13;1.50;;;15.20;59.20;;;;;;5034833;28;20213;-66
2022/09/25 12:54:19;;;;;;;2.25;1.05;;;15.20;56.10;;;;;;5041032;28;20231;-66
2022/09/25 12:56:53;;;;;;;3.15;1.38;;;14.90;45.80;;;;;;5039956;28;20819;-66
2022/09/25 12:59:23;;;;;;;2.28;0.85;;;15.20;35.70;;;;;;5029170;28;20207;-66
2022/09/25 13:01:56;;;;;;;2.08;0.80;;;15.30;30.00;;;;;;5041468;28;20208;-66
2022/09/25 13:04:37;;;;;;;3.70;1.00;;;15.20;51.80;;;;;;5008711;28;21110;-67
2022/09/25 13:07:09;;;;;;;1.33;0.68;;;15.20;41.10;;;;;;5033814;28;20229;-66
2022/09/25 13:09:43;;;;;;;2.35;0.80;;;14.80;39.90;;;;;;5035755;28;20220;-66
2022/09/25 13:12:19;;;;;;;3.78;0.80;;;15.10;47.30;;;;;;5031099;28;20330;-66
2022/09/25 13:14:52;;;;;;;3.25;1.00;;;15.30;50.30;;;;;;5027243;28;20988;-66
2022/09/25 13:17:19;;;;;;;3.13;1.35;;;;;;;;;;5038352;28;20317;-66
2022/09/25 13:19:46;;;;;;;3.10;0.70;;;14.90;23.40;;;;;;5006265;28;20651;-66
2022/09/25 13:22:18;;;;;;;1.80;0.82;;;14.80;31.10;;;;;;5020030;28;20252;-66
2022/09/25 13:24:51;;;;;;;3.45;0.93;;;14.90;28.80;;;;;;5046123;28;20204;-66
2022/09/25 13:27:21;;;;;;;1.92;0.90;;;15.20;29.80;;;;;;5023987;28;20303;-66